METAR Data
IDs: Format: Raw Decoded Include TAF

Data at: 0307 UTC 05 Jun 2020

KSTJ 050253Z AUTO 16006KT 10SM CLR 26/21 A2976 RMK AO2 SLP070 T02610211 53008
KSTJ 050153Z AUTO 17005KT 10SM FEW002 27/21 A2973 RMK AO2 SLP059 T02670211
KSTJ 050053Z 17007KT 10SM CLR 29/21 A2973 RMK AO2 SLP059 T02940206
KSTJ 042353Z 17007KT 10SM CLR 31/20 A2974 RMK AO2 SLP062 T03110200 10317 20283 56009
KSTJ 042253Z 21008KT 10SM CLR 32/19 A2975 RMK AO2 SLP065 T03170194
KSTJ 042153Z 19006KT 10SM CLR 32/19 A2975 RMK AO2 SLP067 T03170194
KSTJ 042053Z 17003KT 10SM CLR 31/19 A2977 RMK AO2 SLP071 T03110189 58014
KSTJ 041953Z 21005KT 10SM CLR 31/19 A2978 RMK AO2 SLP077 T03060194
KSTJ 041853Z VRB04KT 10SM CLR 29/20 A2979 RMK AO2 SLP080 T02940200
KSTJ 041809Z VRB03KT 10SM FEW001 28/19 A2981 RMK AO2 T02830189
KSTJ 041753Z 22007KT 10SM CLR 28/19 A2981 RMK AO2 SLP084 T02830194 10283 20194 58006
KSTJ 041653Z 25005KT 10SM CLR 27/19 A2982 RMK AO2 SLP087 T02720189
KSTJ 041553Z 19004KT 10SM CLR 25/19 A2982 RMK AO2 SLP088 T02500194
KSTJ 041453Z 20006KT 10SM CLR 24/18 A2982 RMK AO2 SLP091 T02390183 50000
KSTJ 041353Z 20007KT 10SM CLR 22/18 A2983 RMK AO2 SLP093 T02220183
KSTJ 041253Z 19006KT 10SM CLR 21/18 A2984 RMK AO2 SLP094 T02060183 $
KSTJ 041153Z 19009KT 10SM CLR 19/18 A2982 RMK AO2 SLP091 60023 70023 T01940178 10256 20194 50026 $
KSTJ 041053Z AUTO 18008KT 10SM FEW010 19/18 A2983 RMK AO2 SLP093 T01940178 $
KSTJ 040953Z AUTO 11005KT 10SM CLR 20/18 A2979 RMK AO2 SLP077 T02000183 $
KSTJ 040853Z AUTO 11007KT 10SM FEW110 20/18 A2974 RMK AO2 LTG DSNT SE AND S RAE42 SLP063 P0007 60023 T02000178 58006 $
KSTJ 040813Z AUTO 25004KT 6SM -RA BR FEW090 BKN110 20/18 A2980 RMK AO2 LTG DSNT NE AND E P0005 T02000178 $
KSTJ 040753Z AUTO 28011KT 8SM VCTS RA BKN090 OVC110 20/18 A2982 RMK AO2 PK WND 31042/0715 LTG DSNT ALQDS TSE12 SLP089 P0014 T02000178 $
KSTJ 040742Z AUTO 30016G28KT 7SM RA BKN085 OVC110 20/17 A2982 RMK AO2 PK WND 31042/0715 LTG DSNT NE AND E TSE12 P0011 T02000172 $
KSTJ 040718Z AUTO 31026G42KT 8SM VCTS -RA FEW049 FEW100 BKN120 20/17 A2974 RMK AO2 PK WND 31042/0715 LTG DSNT ALQDS TSE12 P0003 T02000172 $
KSTJ 040654Z AUTO 32020G33KT 10SM -TSRA FEW055 BKN070 BKN085 20/17 A2976 RMK AO2 PK WND 30050/0625 LTG DSNT ALQDS RAB27 TSB26 PRESFR SLP069 P0002 T02000172 $
KSTJ 040632Z AUTO 30030G50KT 6SM -TSRA BR 19/17 A2979 RMK AO2 PK WND 30050/0625 LTG DSNT ALQDS RAB27 TSB26 P0001 T01940172 $
KSTJ 040625Z AUTO 31035G50KT VCTS 21/17 A2978 RMK AO2 PK WND 30050/0625 LTG DSNT ALQDS T02060172 PWINO RVRNO $
KSTJ 040606Z AUTO 17006KT 10SM VCTS BKN049 OVC060 26/23 A2972 RMK AO2 LTG DSNT ALQDS T02560228
KSTJ 040553Z AUTO 16006KT 10SM BKN050 BKN065 OVC080 26/23 A2973 RMK AO2 LTG DSNT W AND NW SLP057 T02560228 10322 20239 403330228 58012
KSTJ 040453Z AUTO 36003KT 10SM CLR 26/22 A2974 RMK AO2 SLP061 T02560222
KSTJ 040353Z AUTO 02003KT 10SM CLR 26/22 A2977 RMK AO2 SLP073 T02560222
KSTJ 040253Z AUTO 00000KT 10SM CLR 28/23 A2977 RMK AO2 SLP070 T02780228 53006
KSTJ 040153Z AUTO 17004KT 10SM CLR 29/22 A2975 RMK AO2 SLP063 T02890222
KSTJ 040053Z 22004KT 10SM CLR 31/22 A2975 RMK AO2 SLP064 T03110217 $
KSTJ 032353Z 21004KT 10SM CLR 32/21 A2975 RMK AO2 SLP064 T03220211 10333 20300 56014 $
KSTJ 032253Z 00000KT 10SM CLR 33/21 A2976 RMK AO2 SLP067 T03280211 $
KSTJ 032153Z 00000KT 10SM FEW050 33/21 A2977 RMK AO2 SLP073 T03280211 $
KSTJ 032053Z AUTO 36007KT 10SM SCT055 32/21 A2979 RMK AO2 SLP078 T03220211 56019 $
KSTJ 031953Z 21005KT 10SM SCT050 32/21 A2981 RMK AO2 SLP085 T03220211
KSTJ 031853Z 18005KT 10SM CLR 32/21 A2982 RMK AO2 SLP089 T03220211
KSTJ 031753Z VRB05KT 10SM CLR 32/21 A2985 RMK AO2 SLP097 60000 T03170206 10317 20239 57004
KSTJ 031653Z VRB05KT 10SM CLR 30/21 A2985 RMK AO2 RAB25E34 SLP100 P0000 T03000206
KSTJ 031553Z 23010KT 10SM CLR 29/21 A2985 RMK AO2 SLP100 T02890206